1NV2 weather

Lake Las Vegas Heliport
Henderson, Nevada, United States

Public forecast

Using degrees Fahrenheit for public forecast. Weather courtesy of forecast.io.

METAR (pilot weather report)

Closest report is Nellis Air Force Base, 9.0 nm (16.7 km) NW. Retrieved 2019/03/26 17:57 UTC (37 minutes ago):

KLSV 261757Z VRB02KT 10SM SCT220 22/M05 A3002 RMK AO2A SLP146 WND DATA ESTMD T02151046 10200 20101 50000 $

TAF (pilot weather forecast)

Closest forecast is Nellis Air Force Base, 9.0 nm (16.7 km) NW. Retrieved 2019/03/26 15:57 UTC (3 hours ago):

TAF KLSV 261500Z 2615/2721 VRB06KT 9999 BKN250 QNH2992INS BECMG 2620/2621 19012G18KT 9999 SCT250 QNH2988INS BECMG 2702/2703 19010KT 9999 SCT250 QNH2989INS BECMG 2717/2718 16012G20KT 9999 FEW250 QNH2995INS TX27/2622Z TN13/2615Z